• Join FlightAware (Why Join?)
  • Login
  • US Flag 
04:21PM EDT


 

Airport Tracker/Info


-or-


 

Live Flight TrackerFlight Track Log ✈ SWA508 ✈ 02-May-2013 ✈ KPHL - KBNA

Flight Track Log - Related Links

Times and Time Zones

All times are in EDT time to prevent confusion due to time zone crossing. See the SWA508 flight status page for this flight to view local times or setup timezone preferences in your user account.

Time Position Orientation Groundspeed Altitude Reporting Facility
EDT Latitude Longitude Course Direction KTS MPH feet Rate Location/Type
03:56PM 39.8833 -75.2167 72° East 135 155 1,000  Level Philadelphia TRACON
03:57PM 39.9000 -75.1500 72° East 212 244 2,900 2,460 Climbing Philadelphia TRACON
03:58PM 39.9333 -75.1167 37° Northeast 229 264 6,000 3,060 Climbing Philadelphia TRACON
03:59PM 39.9500 -75.2167 282° West 307 353 9,400 1,860 Climbing Philadelphia TRACON
04:00PM 39.9500 -75.3333 270° West 334 384 10,000 300 Climbing Philadelphia TRACON
04:01PM 39.9333 -75.4500 259° West 328 377 10,000  Level Philadelphia TRACON
04:01PM 39.9342 -75.4733 273° West 344 396 10,000 -120 Level New York Center
04:02PM 39.9278 -75.5811 266° West 336 387 9,900 480 Descending New York Center
04:03PM 39.9186 -75.7025 264° West 331 381 11,000 2,160 Climbing New York Center
04:04PM 39.9172 -75.8322 269° West 342 394 14,200 3,180 Climbing New York Center
04:05PM 39.9136 -75.9672 268° West 362 417 17,400 2,700 Climbing New York Center
04:06PM 39.9094 -76.1078 268° West 384 442 19,800 2,400 Climbing New York Center
04:07PM 39.9108 -76.2567 271° West 401 461 22,400 2,520 Climbing New York Center
04:08PM 39.9139 -76.4111 272° West 414 476 24,800 2,340 Climbing New York Center
04:09PM 39.9211 -76.5661 274° West 428 493 27,100 1,920 Climbing New York Center
04:11PM 39.8528 -76.8617 253° West 429 494 30,800 1,860 Climbing Washington Center
04:12PM 39.7889 -77.0011 239° Southwest 449 517 32,800 1,740 Climbing Washington Center
04:13PM 39.7225 -77.1372 238° Southwest 454 522 34,300 1,560 Climbing Washington Center
04:14PM 39.6583 -77.2733 239° Southwest 454 522 35,900 1,620 Climbing Washington Center
04:15PM 39.5936 -77.4119 239° Southwest 454 522 37,600 1,020 Climbing Washington Center
04:16PM 39.5311 -77.5450 239° Southwest 448 516 38,000 180 Climbing Washington Center
04:17PM 39.4706 -77.6725 238° Southwest 443 510 38,000  Level Washington Center
04:18PM 39.4081 -77.8022 238° Southwest 433 498 38,000  Level Washington Center
04:19PM 39.3447 -77.9478 241° Southwest 428 493 38,000  Level Washington Center
04:20PM 39.2919 -78.0856 244° Southwest 428 493 38,000  Level Washington Center
04:21PM 39.2389 -78.2231 244° Southwest 428 493 38,000  Level Washington Center
04:22PM 39.1839 -78.3578 242° Southwest 428 493 38,000  Level Washington Center
04:23PM 39.1306 -78.4950 243° Southwest 428 493 38,000  Level Washington Center
04:24PM 39.0731 -78.6289 241° Southwest 428 493 38,000  Level Washington Center
04:25PM 39.0194 -78.7683 244° Southwest 428 493 38,000  Level Washington Center
04:26PM 38.9636 -78.9047 242° Southwest 428 493 38,000  Level Washington Center
04:27PM 38.9078 -79.0383 242° Southwest 428 493 38,000  Level Washington Center
04:28PM 38.8517 -79.1769 243° Southwest 428 493 38,000  Level Washington Center
04:29PM 38.8203 -79.3194 254° West 428 493 38,000  Level Washington Center
04:30PM 38.7947 -79.4672 258° West 423 487 38,000  Level Washington Center
04:31PM 38.7689 -79.6203 258° West 436 502 38,000  Level Washington Center
04:32PM 38.7411 -79.7625 256° West 430 495 38,000  Level Washington Center
04:33PM 38.7150 -79.9075 257° West 425 489 38,000  Level Washington Center
04:34PM 38.6889 -80.0547 257° West 425 489 38,000  Level Washington Center
04:35PM 38.6483 -80.2447 255° West 420 483 38,000  Level Indianapolis Center
04:36PM 38.6200 -80.3925 256° West 426 490 38,000  Level Indianapolis Center
04:37PM 38.5925 -80.5381 256° West 422 486 38,000  Level Indianapolis Center
04:38PM 38.5639 -80.6869 256° West 430 495 38,000  Level Indianapolis Center
04:39PM 38.5353 -80.8386 256° West 434 499 38,000 -120 Level Indianapolis Center
04:41PM 38.5046 -80.9823 255° West  Level FlightAware Approximate
04:45PM 38.3833 -81.6072 251° West 423 487 37,500  Level Indianapolis Center
04:46PM 38.3528 -81.7531 250° West 421 484 36,300 -780 Descending Indianapolis Center
04:47PM 38.3152 -81.8511 250° West  Level FlightAware Approximate
04:47PM 38.3153 -81.8939 251° West 419 482 36,000  Level Indianapolis Center
04:48PM 38.2996 -81.8913 251° West  Level FlightAware Approximate
04:48PM 38.2750 -82.0347 250° West 421 484 36,000  Level Indianapolis Center
04:49PM 38.2649 -82.0189 251° West  Level FlightAware Approximate
04:49PM 38.2361 -82.1753 251° West 421 484 36,000  Level Indianapolis Center
04:50PM 38.2301 -82.1462 251° West  Level FlightAware Approximate
04:50PM 38.1878 -82.3453 250° West 424 488 36,000  Level Indianapolis Center
04:51PM 38.1483 -82.4872 251° West 427 491 36,000  Level Indianapolis Center
04:52PM 38.1067 -82.6317 250° West 426 490 36,000  Level Indianapolis Center
04:53PM 38.0650 -82.7725 249° West 429 494 36,000  Level Indianapolis Center
04:54PM 37.9619 -82.6799 250° West  Level Estimated
04:54PM 38.0247 -82.9161 250° West 433 498 36,000  Level Indianapolis Center
04:55PM 37.9764 -83.0825 250° West 433 498 36,000 -60 Level Indianapolis Center
04:56PM 37.9344 -83.2253 250° West 433 498 35,900 -540 Descending Indianapolis Center
04:57PM 37.8917 -83.3658 249° West 430 495 34,900 -1,020 Descending Indianapolis Center
04:58PM 37.8500 -83.5072 250° West 430 495 33,900 -1,020 Descending Indianapolis Center
04:59PM 37.8078 -83.6522 250° West 437 503 32,900 -960 Descending Indianapolis Center
05:00PM 37.7550 -83.8161 248° West 431 496 32,000 -480 Descending Indianapolis Center
05:01PM 37.6786 -83.9328 230° Southwest 429 494 32,000  Level Indianapolis Center
05:02PM 37.6014 -84.0461 229° Southwest 427 491 32,000  Level Indianapolis Center
05:03PM 37.5247 -84.1600 230° Southwest 426 490 32,000  Level Indianapolis Center
05:04PM 37.4458 -84.2744 229° Southwest 430 495 32,000  Level Indianapolis Center
05:05PM 37.3533 -84.4089 229° Southwest 434 499 32,000 -120 Level Indianapolis Center
05:06PM 37.2739 -84.5247 229° Southwest 436 502 31,800 -600 Descending Indianapolis Center
05:07PM 37.2039 -84.6464 234° Southwest 432 497 30,800 -1,020 Descending Indianapolis Center
05:08PM 37.1328 -84.7661 233° Southwest 430 495 29,800 -1,020 Descending Indianapolis Center
05:09PM 37.0639 -84.8822 233° Southwest 418 481 28,800 -1,020 Descending Indianapolis Center
05:10PM 36.9944 -84.9969 233° Southwest 413 475 27,800 -1,080 Descending Indianapolis Center
05:11PM 36.9147 -85.1314 233° Southwest 406 467 26,600 -1,260 Descending Indianapolis Center
05:13PM 36.8481 -85.2411 233° Southwest 399 459 25,300 -1,680 Descending Indianapolis Center
05:14PM 36.7839 -85.3469 233° Southwest 386 444 23,200 -2,220 Descending Indianapolis Center
05:14PM 36.7614 -85.3844 233° Southwest 395 455 22,400 -2,640 Descending Memphis Center
05:15PM 36.7072 -85.4939 238° Southwest 390 449 19,800 -2,340 Descending Memphis Center
05:16PM 36.6553 -85.6031 239° Southwest 382 440 17,800 -2,100 Descending Memphis Center
05:17PM 36.6031 -85.7069 238° Southwest 371 427 15,600 -2,100 Descending Memphis Center
05:18PM 36.5547 -85.8158 241° Southwest 371 427 13,600 3,180 Descending Memphis Center
05:19PM 36.5064 -85.9164 239° Southwest 354 407 22,000 -1,680 Climbing Memphis Center
05:20PM 36.4619 -86.0119 240° Southwest 343 395 10,300 -6,300 Descending Memphis Center
05:21PM 36.4211 -86.0992 240° Southwest 311 358 9,400 -1,140 Descending Memphis Center
05:22PM 36.3819 -86.1786 239° Southwest 283 326 8,100 -1,200 Descending Memphis Center
05:23PM 36.3514 -86.2575 244° Southwest 275 316 7,000 -1,200 Descending Memphis Center
05:24PM 36.3206 -86.3389 245° Southwest 270 311 5,700 -1,260 Descending Memphis Center
05:25PM 36.2878 -86.4175 243° Southwest 265 305 4,500 -900 Descending Memphis Center
05:26PM 36.2628 -86.4883 246° West 246 283 4,000 -600 Descending Memphis Center
05:27PM 36.2336 -86.5567 242° Southwest 228 262 3,300 -900 Descending Memphis Center
05:28PM 36.2086 -86.6194 244° Southwest 211 243 2,300 -900 Descending Memphis Center
05:29PM 36.1758 -86.6442 211° Southwest 162 186 1,500 -780 Descending Memphis Center
05:30PM 36.1369 -86.6614 200° South 146 168 800 -360 Descending Memphis Center
05:31PM 36.1061 -86.6833 210° Southwest 146 168 800  Level Memphis Center
05:33PM 36.1167 -86.6667 39° Northeast  Level FlightAware Approximate
05:40PM 36.1245 -86.6782 39° Northeast  Level Estimated
05:41PM 36.1245 -86.6782 39° Northeast  Level Estimated
05:42PM 36.1245 -86.6782 39° Northeast  Level Estimated
05:43PM 36.1245 -86.6782 39° Northeast  Level Estimated
05:44PM 36.1245 -86.6782 39° Northeast  Level Estimated
05:45PM 36.1245 -86.6782 39° Northeast  Level Estimated
05:46PM 36.1245 -86.6782 39° Northeast  Level Estimated
05:47PM 36.1245 -86.6782 39° Northeast  Level Estimated